sensor_id;sensor_type;location;lat;lon;timestamp;temperature;humidity
7476;DHT22;3779;49.216;8.650;2023-12-28T00:57:32;20.10;57.30
7476;DHT22;3779;49.216;8.650;2023-12-28T01:00:18;20.10;57.00
7476;DHT22;3779;49.216;8.650;2023-12-28T01:03:04;20.10;56.90
7476;DHT22;3779;49.216;8.650;2023-12-28T01:05:50;20.10;57.10
7476;DHT22;3779;49.216;8.650;2023-12-28T01:08:36;20.10;57.00
7476;DHT22;3779;49.216;8.650;2023-12-28T01:11:21;20.40;57.10
7476;DHT22;3779;49.216;8.650;2023-12-28T01:14:07;20.10;56.90
7476;DHT22;3779;49.216;8.650;2023-12-28T01:16:53;20.10;56.90
7476;DHT22;3779;49.216;8.650;2023-12-28T01:19:39;20.10;57.10
7476;DHT22;3779;49.216;8.650;2023-12-28T01:22:24;20.10;56.80
7476;DHT22;3779;49.216;8.650;2023-12-28T01:25:10;20.10;56.80
7476;DHT22;3779;49.216;8.650;2023-12-28T01:27:56;20.10;56.80
7476;DHT22;3779;49.216;8.650;2023-12-28T01:30:42;20.10;56.80
7476;DHT22;3779;49.216;8.650;2023-12-28T01:33:29;20.10;56.90
7476;DHT22;3779;49.216;8.650;2023-12-28T01:36:19;20.10;56.70
7476;DHT22;3779;49.216;8.650;2023-12-28T01:39:05;20.10;57.00
7476;DHT22;3779;49.216;8.650;2023-12-28T01:41:51;20.40;57.10
7476;DHT22;3779;49.216;8.650;2023-12-28T01:44:36;20.10;56.70
7476;DHT22;3779;49.216;8.650;2023-12-28T01:47:23;20.10;56.70
7476;DHT22;3779;49.216;8.650;2023-12-28T01:50:09;20.10;56.90
7476;DHT22;3779;49.216;8.650;2023-12-28T01:52:56;20.10;56.70
7476;DHT22;3779;49.216;8.650;2023-12-28T01:55:43;20.10;56.90
7476;DHT22;3779;49.216;8.650;2023-12-28T01:58:33;20.10;56.70
7476;DHT22;3779;49.216;8.650;2023-12-28T02:01:20;20.10;57.00
7476;DHT22;3779;49.216;8.650;2023-12-28T02:04:06;20.10;56.80
7476;DHT22;3779;49.216;8.650;2023-12-28T02:06:56;19.60;56.50
7476;DHT22;3779;49.216;8.650;2023-12-28T02:09:42;20.10;56.90
7476;DHT22;3779;49.216;8.650;2023-12-28T02:12:28;20.40;57.00
7476;DHT22;3779;49.216;8.650;2023-12-28T02:15:14;20.10;56.70
7476;DHT22;3779;49.216;8.650;2023-12-28T02:18:08;20.10;56.70
7476;DHT22;3779;49.216;8.650;2023-12-28T02:20:56;20.10;57.00
7476;DHT22;3779;49.216;8.650;2023-12-28T02:23:50;20.10;57.00
7476;DHT22;3779;49.216;8.650;2023-12-28T02:26:35;20.20;57.10
7476;DHT22;3779;49.216;8.650;2023-12-28T02:29:21;20.10;56.60
7476;DHT22;3779;49.216;8.650;2023-12-28T02:32:09;20.00;56.70
7476;DHT22;3779;49.216;8.650;2023-12-28T02:35:01;20.10;57.60
7476;DHT22;3779;49.216;8.650;2023-12-28T02:37:51;20.40;57.20
7476;DHT22;3779;49.216;8.650;2023-12-28T02:40:39;20.00;56.60
7476;DHT22;3779;49.216;8.650;2023-12-28T02:43:25;20.10;56.80
7476;DHT22;3779;49.216;8.650;2023-12-28T02:46:11;20.10;56.50
7476;DHT22;3779;49.216;8.650;2023-12-28T02:48:57;20.10;56.70
7476;DHT22;3779;49.216;8.650;2023-12-28T02:51:44;20.10;56.70
7476;DHT22;3779;49.216;8.650;2023-12-28T02:54:30;20.10;56.50
7476;DHT22;3779;49.216;8.650;2023-12-28T02:57:16;20.00;56.40
7476;DHT22;3779;49.216;8.650;2023-12-28T03:00:07;20.10;56.80
7476;DHT22;3779;49.216;8.650;2023-12-28T03:02:57;20.10;56.90
7476;DHT22;3779;49.216;8.650;2023-12-28T03:05:42;20.00;56.00
7476;DHT22;3779;49.216;8.650;2023-12-28T03:08:28;20.10;56.70
7476;DHT22;3779;49.216;8.650;2023-12-28T03:11:14;20.10;56.60
7476;DHT22;3779;49.216;8.650;2023-12-28T03:14:00;20.10;56.60
7476;DHT22;3779;49.216;8.650;2023-12-28T03:16:47;20.10;56.90
7476;DHT22;3779;49.216;8.650;2023-12-28T03:19:33;20.30;56.80
7476;DHT22;3779;49.216;8.650;2023-12-28T03:22:19;20.10;56.40
7476;DHT22;3779;49.216;8.650;2023-12-28T03:25:05;20.10;56.70
7476;DHT22;3779;49.216;8.650;2023-12-28T03:27:51;20.10;56.40
7476;DHT22;3779;49.216;8.650;2023-12-28T03:30:37;20.00;56.50
7476;DHT22;3779;49.216;8.650;2023-12-28T03:33:23;20.10;55.70
7476;DHT22;3779;49.216;8.650;2023-12-28T03:36:18;20.30;56.30
7476;DHT22;3779;49.216;8.650;2023-12-28T03:39:04;20.10;56.70
7476;DHT22;3779;49.216;8.650;2023-12-28T03:41:51;20.10;56.50
7476;DHT22;3779;49.216;8.650;2023-12-28T03:44:40;20.00;56.50
7476;DHT22;3779;49.216;8.650;2023-12-28T03:47:26;20.10;56.40
7476;DHT22;3779;49.216;8.650;2023-12-28T03:50:12;20.10;56.60
7476;DHT22;3779;49.216;8.650;2023-12-28T03:52:57;20.10;56.30
7476;DHT22;3779;49.216;8.650;2023-12-28T03:55:44;20.10;56.40
7476;DHT22;3779;49.216;8.650;2023-12-28T03:58:30;20.10;56.30
7476;DHT22;3779;49.216;8.650;2023-12-28T04:01:17;20.10;57.00
7476;DHT22;3779;49.216;8.650;2023-12-28T04:04:03;20.10;56.30
7476;DHT22;3779;49.216;8.650;2023-12-28T04:06:49;20.10;56.20
7476;DHT22;3779;49.216;8.650;2023-12-28T04:09:35;20.10;56.30
7476;DHT22;3779;49.216;8.650;2023-12-28T04:12:20;20.10;56.50
7476;DHT22;3779;49.216;8.650;2023-12-28T04:15:06;20.40;56.30
7476;DHT22;3779;49.216;8.650;2023-12-28T04:17:52;20.20;56.40
7476;DHT22;3779;49.216;8.650;2023-12-28T04:20:38;20.10;56.40
7476;DHT22;3779;49.216;8.650;2023-12-28T04:23:24;20.10;56.40
7476;DHT22;3779;49.216;8.650;2023-12-28T04:26:09;20.40;56.70
7476;DHT22;3779;49.216;8.650;2023-12-28T04:28:55;20.10;56.70
7476;DHT22;3779;49.216;8.650;2023-12-28T04:31:41;20.10;56.30
7476;DHT22;3779;49.216;8.650;2023-12-28T04:34:27;20.10;56.40
7476;DHT22;3779;49.216;8.650;2023-12-28T04:37:13;20.50;56.50
7476;DHT22;3779;49.216;8.650;2023-12-28T04:39:59;20.00;56.20
7476;DHT22;3779;49.216;8.650;2023-12-28T04:42:45;20.10;56.30
7476;DHT22;3779;49.216;8.650;2023-12-28T04:45:30;20.10;56.50
7476;DHT22;3779;49.216;8.650;2023-12-28T04:48:17;20.10;56.00
7476;DHT22;3779;49.216;8.650;2023-12-28T04:51:07;20.30;56.50
7476;DHT22;3779;49.216;8.650;2023-12-28T04:53:52;20.20;55.90
7476;DHT22;3779;49.216;8.650;2023-12-28T04:56:38;20.20;56.20
7476;DHT22;3779;49.216;8.650;2023-12-28T04:59:24;20.20;56.20
7476;DHT22;3779;49.216;8.650;2023-12-28T05:02:10;20.10;56.00
7476;DHT22;3779;49.216;8.650;2023-12-28T05:04:55;20.10;56.10
7476;DHT22;3779;49.216;8.650;2023-12-28T05:07:41;20.10;56.10
7476;DHT22;3779;49.216;8.650;2023-12-28T05:10:27;20.10;55.70
7476;DHT22;3779;49.216;8.650;2023-12-28T05:13:13;20.10;56.00
7476;DHT22;3779;49.216;8.650;2023-12-28T05:15:59;20.10;55.90
7476;DHT22;3779;49.216;8.650;2023-12-28T05:18:44;20.10;56.00
7476;DHT22;3779;49.216;8.650;2023-12-28T05:21:30;20.10;55.30
7476;DHT22;3779;49.216;8.650;2023-12-28T05:24:16;20.10;55.50
7476;DHT22;3779;49.216;8.650;2023-12-28T05:27:02;20.20;55.40
7476;DHT22;3779;49.216;8.650;2023-12-28T05:29:48;20.20;56.00
7476;DHT22;3779;49.216;8.650;2023-12-28T05:32:34;20.10;55.70
7476;DHT22;3779;49.216;8.650;2023-12-28T05:35:20;20.10;56.20
7476;DHT22;3779;49.216;8.650;2023-12-28T06:48:36;19.90;55.80
7476;DHT22;3779;49.216;8.650;2023-12-28T06:51:23;19.90;56.50
7476;DHT22;3779;49.216;8.650;2023-12-28T06:54:09;19.90;56.40
7476;DHT22;3779;49.216;8.650;2023-12-28T06:56:55;20.00;56.30
7476;DHT22;3779;49.216;8.650;2023-12-28T06:59:40;20.10;56.30
7476;DHT22;3779;49.216;8.650;2023-12-28T07:02:26;20.10;56.30
7476;DHT22;3779;49.216;8.650;2023-12-28T07:05:12;20.10;55.70
7476;DHT22;3779;49.216;8.650;2023-12-28T07:07:59;20.10;55.80
7476;DHT22;3779;49.216;8.650;2023-12-28T07:10:45;20.20;55.50
7476;DHT22;3779;49.216;8.650;2023-12-28T07:13:31;20.10;54.60
7476;DHT22;3779;49.216;8.650;2023-12-28T07:16:17;20.10;56.00
7476;DHT22;3779;49.216;8.650;2023-12-28T07:19:02;20.00;56.00
7476;DHT22;3779;49.216;8.650;2023-12-28T07:21:49;20.10;56.20
7476;DHT22;3779;49.216;8.650;2023-12-28T07:24:35;20.10;55.30
7476;DHT22;3779;49.216;8.650;2023-12-28T07:27:21;20.30;56.50
7476;DHT22;3779;49.216;8.650;2023-12-28T07:30:07;20.00;54.60
7476;DHT22;3779;49.216;8.650;2023-12-28T07:32:53;20.00;56.10
7476;DHT22;3779;49.216;8.650;2023-12-28T07:35:39;20.00;55.30
7476;DHT22;3779;49.216;8.650;2023-12-28T07:38:25;20.00;56.20
7476;DHT22;3779;49.216;8.650;2023-12-28T07:41:11;20.00;57.00
7476;DHT22;3779;49.216;8.650;2023-12-28T07:43:56;20.30;56.00
7476;DHT22;3779;49.216;8.650;2023-12-28T07:46:42;20.10;56.00
7476;DHT22;3779;49.216;8.650;2023-12-28T07:49:30;20.10;55.80
7476;DHT22;3779;49.216;8.650;2023-12-28T07:52:16;20.50;55.80
7476;DHT22;3779;49.216;8.650;2023-12-28T07:55:03;20.20;55.80
7476;DHT22;3779;49.216;8.650;2023-12-28T09:10:47;20.10;57.40
7476;DHT22;3779;49.216;8.650;2023-12-28T09:13:33;20.10;56.40
7476;DHT22;3779;49.216;8.650;2023-12-28T09:16:18;20.10;56.40
7476;DHT22;3779;49.216;8.650;2023-12-28T09:19:04;20.10;55.80
7476;DHT22;3779;49.216;8.650;2023-12-28T09:21:50;20.10;56.30
7476;DHT22;3779;49.216;8.650;2023-12-28T09:24:35;20.00;56.40
7476;DHT22;3779;49.216;8.650;2023-12-28T09:27:21;20.00;56.40
7476;DHT22;3779;49.216;8.650;2023-12-28T09:30:07;20.40;56.60
7476;DHT22;3779;49.216;8.650;2023-12-28T09:32:53;19.90;56.20
7476;DHT22;3779;49.216;8.650;2023-12-28T09:35:39;19.90;56.50
7476;DHT22;3779;49.216;8.650;2023-12-28T09:38:25;19.90;54.80
7476;DHT22;3779;49.216;8.650;2023-12-28T09:41:13;19.90;56.60
7476;DHT22;3779;49.216;8.650;2023-12-28T09:44:11;20.30;57.10
7476;DHT22;3779;49.216;8.650;2023-12-28T09:46:57;20.00;57.00
7476;DHT22;3779;49.216;8.650;2023-12-28T09:49:43;20.00;56.80
7476;DHT22;3779;49.216;8.650;2023-12-28T09:52:29;20.00;56.60
7476;DHT22;3779;49.216;8.650;2023-12-28T09:55:16;20.00;54.60
7476;DHT22;3779;49.216;8.650;2023-12-28T09:58:04;20.00;55.80
7476;DHT22;3779;49.216;8.650;2023-12-28T10:00:51;20.20;56.90
7476;DHT22;3779;49.216;8.650;2023-12-28T10:03:37;20.30;56.60
7476;DHT22;3779;49.216;8.650;2023-12-28T10:06:23;20.10;56.30
7476;DHT22;3779;49.216;8.650;2023-12-28T10:09:08;20.10;56.30
7476;DHT22;3779;49.216;8.650;2023-12-28T10:11:54;20.30;56.30
7476;DHT22;3779;49.216;8.650;2023-12-28T10:14:41;20.10;55.80
7476;DHT22;3779;49.216;8.650;2023-12-28T10:17:27;20.10;56.00
7476;DHT22;3779;49.216;8.650;2023-12-28T10:20:14;20.00;55.10
7476;DHT22;3779;49.216;8.650;2023-12-28T10:23:00;20.00;56.10
7476;DHT22;3779;49.216;8.650;2023-12-28T10:25:46;20.40;56.40
7476;DHT22;3779;49.216;8.650;2023-12-28T10:28:32;20.40;56.50
7476;DHT22;3779;49.216;8.650;2023-12-28T10:31:21;20.10;55.80
7476;DHT22;3779;49.216;8.650;2023-12-28T10:34:06;20.10;56.10
7476;DHT22;3779;49.216;8.650;2023-12-28T10:36:52;20.10;56.10
7476;DHT22;3779;49.216;8.650;2023-12-28T10:39:39;20.00;56.00
7476;DHT22;3779;49.216;8.650;2023-12-28T10:42:49;20.10;56.10
7476;DHT22;3779;49.216;8.650;2023-12-28T10:45:37;20.10;56.30
7476;DHT22;3779;49.216;8.650;2023-12-28T10:48:32;20.10;55.70
7476;DHT22;3779;49.216;8.650;2023-12-28T10:51:25;20.20;56.20
7476;DHT22;3779;49.216;8.650;2023-12-28T10:54:37;20.10;56.10
7476;DHT22;3779;49.216;8.650;2023-12-28T10:57:29;20.00;55.80
7476;DHT22;3779;49.216;8.650;2023-12-28T11:00:22;20.30;56.50
7476;DHT22;3779;49.216;8.650;2023-12-28T11:03:11;20.30;54.30
7476;DHT22;3779;49.216;8.650;2023-12-28T11:05:58;19.90;56.30
7476;DHT22;3779;49.216;8.650;2023-12-28T11:08:45;20.30;56.50
7476;DHT22;3779;49.216;8.650;2023-12-28T11:11:34;20.00;56.50
7476;DHT22;3779;49.216;8.650;2023-12-28T11:14:21;20.10;56.50
7476;DHT22;3779;49.216;8.650;2023-12-28T11:17:09;20.10;55.90
7476;DHT22;3779;49.216;8.650;2023-12-28T11:19:56;20.00;55.40
7476;DHT22;3779;49.216;8.650;2023-12-28T11:22:42;20.00;55.30
7476;DHT22;3779;49.216;8.650;2023-12-28T11:25:31;20.00;56.20
7476;DHT22;3779;49.216;8.650;2023-12-28T11:28:18;20.00;55.10
7476;DHT22;3779;49.216;8.650;2023-12-28T11:31:05;19.90;56.30
7476;DHT22;3779;49.216;8.650;2023-12-28T11:33:51;20.10;56.00
7476;DHT22;3779;49.216;8.650;2023-12-28T11:36:51;20.10;56.20
7476;DHT22;3779;49.216;8.650;2023-12-28T11:39:38;20.00;55.60
7476;DHT22;3779;49.216;8.650;2023-12-28T11:42:28;20.00;56.20
7476;DHT22;3779;49.216;8.650;2023-12-28T11:45:16;20.40;56.30
7476;DHT22;3779;49.216;8.650;2023-12-28T11:48:03;20.10;56.10
7476;DHT22;3779;49.216;8.650;2023-12-28T11:50:49;20.10;56.40
7476;DHT22;3779;49.216;8.650;2023-12-28T11:53:35;20.10;56.20
7476;DHT22;3779;49.216;8.650;2023-12-28T11:56:21;20.10;56.50
7476;DHT22;3779;49.216;8.650;2023-12-28T11:59:07;20.40;56.50
7476;DHT22;3779;49.216;8.650;2023-12-28T12:01:53;20.10;56.40
7476;DHT22;3779;49.216;8.650;2023-12-28T12:04:39;20.40;57.00
7476;DHT22;3779;49.216;8.650;2023-12-28T12:07:25;20.50;56.90
7476;DHT22;3779;49.216;8.650;2023-12-28T12:10:15;20.00;55.90
7476;DHT22;3779;49.216;8.650;2023-12-28T12:13:02;20.00;57.30
7476;DHT22;3779;49.216;8.650;2023-12-28T12:15:50;19.90;57.30
7476;DHT22;3779;49.216;8.650;2023-12-28T12:18:37;20.00;57.00
7476;DHT22;3779;49.216;8.650;2023-12-28T12:21:23;20.40;57.10
7476;DHT22;3779;49.216;8.650;2023-12-28T12:24:10;20.10;56.60
7476;DHT22;3779;49.216;8.650;2023-12-28T12:26:55;20.40;56.50
7476;DHT22;3779;49.216;8.650;2023-12-28T12:29:50;20.10;56.60
7476;DHT22;3779;49.216;8.650;2023-12-28T12:32:36;20.10;57.20
7476;DHT22;3779;49.216;8.650;2023-12-28T12:35:28;20.10;56.90
7476;DHT22;3779;49.216;8.650;2023-12-28T14:58:40;19.60;52.80
7476;DHT22;3779;49.216;8.650;2023-12-28T15:01:30;19.50;52.70
7476;DHT22;3779;49.216;8.650;2023-12-28T15:04:15;19.50;52.60
7476;DHT22;3779;49.216;8.650;2023-12-28T15:07:01;19.50;52.60
7476;DHT22;3779;49.216;8.650;2023-12-28T15:09:47;19.40;52.70
7476;DHT22;3779;49.216;8.650;2023-12-28T15:12:33;19.40;53.50
7476;DHT22;3779;49.216;8.650;2023-12-28T15:15:19;19.40;53.00
7476;DHT22;3779;49.216;8.650;2023-12-28T15:18:06;19.40;52.90
7476;DHT22;3779;49.216;8.650;2023-12-28T15:20:52;19.40;53.00
7476;DHT22;3779;49.216;8.650;2023-12-28T15:23:38;19.30;52.70
7476;DHT22;3779;49.216;8.650;2023-12-28T15:26:24;19.40;52.80
7476;DHT22;3779;49.216;8.650;2023-12-28T15:29:10;19.30;52.80
7476;DHT22;3779;49.216;8.650;2023-12-28T15:31:57;19.30;53.10
7476;DHT22;3779;49.216;8.650;2023-12-28T15:34:43;19.20;52.90
7476;DHT22;3779;49.216;8.650;2023-12-28T15:37:30;19.10;53.40
7476;DHT22;3779;49.216;8.650;2023-12-28T15:40:17;19.10;53.50
7476;DHT22;3779;49.216;8.650;2023-12-28T15:43:10;19.20;52.90
7476;DHT22;3779;49.216;8.650;2023-12-28T15:45:56;19.50;53.50
7476;DHT22;3779;49.216;8.650;2023-12-28T15:48:47;19.20;53.00
7476;DHT22;3779;49.216;8.650;2023-12-28T15:51:36;19.30;53.40
7476;DHT22;3779;49.216;8.650;2023-12-28T15:54:22;19.30;57.20
7476;DHT22;3779;49.216;8.650;2023-12-28T15:57:07;19.80;58.20
7476;DHT22;3779;49.216;8.650;2023-12-28T15:59:53;19.60;58.20
7476;DHT22;3779;49.216;8.650;2023-12-28T16:02:43;19.70;58.40
7476;DHT22;3779;49.216;8.650;2023-12-28T16:05:29;19.80;58.00
7476;DHT22;3779;49.216;8.650;2023-12-28T17:20:22;20.10;57.70
7476;DHT22;3779;49.216;8.650;2023-12-28T17:23:13;20.10;57.70
7476;DHT22;3779;49.216;8.650;2023-12-28T17:26:09;20.30;56.90
7476;DHT22;3779;49.216;8.650;2023-12-28T17:29:05;20.20;58.40
7476;DHT22;3779;49.216;8.650;2023-12-28T17:31:52;20.10;58.30
7476;DHT22;3779;49.216;8.650;2023-12-28T17:34:39;20.10;57.70
7476;DHT22;3779;49.216;8.650;2023-12-28T17:37:25;20.10;57.60
7476;DHT22;3779;49.216;8.650;2023-12-28T17:40:11;20.10;57.40
7476;DHT22;3779;49.216;8.650;2023-12-28T17:43:09;20.20;57.00
7476;DHT22;3779;49.216;8.650;2023-12-28T17:46:09;20.10;57.80
7476;DHT22;3779;49.216;8.650;2023-12-28T17:49:11;20.20;54.90
7476;DHT22;3779;49.216;8.650;2023-12-28T17:52:00;20.10;57.70
7476;DHT22;3779;49.216;8.650;2023-12-28T17:54:50;20.00;57.90
7476;DHT22;3779;49.216;8.650;2023-12-28T17:57:35;20.10;57.60
7476;DHT22;3779;49.216;8.650;2023-12-28T18:00:22;20.00;57.30
7476;DHT22;3779;49.216;8.650;2023-12-28T18:03:10;20.10;58.20
7476;DHT22;3779;49.216;8.650;2023-12-28T18:05:56;20.30;58.10
7476;DHT22;3779;49.216;8.650;2023-12-28T18:08:41;20.10;57.90
7476;DHT22;3779;49.216;8.650;2023-12-28T18:11:29;20.10;57.30
7476;DHT22;3779;49.216;8.650;2023-12-28T18:14:15;20.10;57.10
7476;DHT22;3779;49.216;8.650;2023-12-28T18:17:07;20.10;57.90
7476;DHT22;3779;49.216;8.650;2023-12-28T18:19:53;20.10;58.00
7476;DHT22;3779;49.216;8.650;2023-12-28T18:22:45;20.50;58.00
7476;DHT22;3779;49.216;8.650;2023-12-28T18:25:30;20.50;58.10
7476;DHT22;3779;49.216;8.650;2023-12-28T18:28:16;20.60;58.10
7476;DHT22;3779;49.216;8.650;2023-12-28T18:31:27;20.20;57.60
7476;DHT22;3779;49.216;8.650;2023-12-28T18:34:13;20.20;58.20
7476;DHT22;3779;49.216;8.650;2023-12-28T18:36:59;20.50;58.30
7476;DHT22;3779;49.216;8.650;2023-12-28T18:39:47;20.10;58.00
7476;DHT22;3779;49.216;8.650;2023-12-28T18:42:36;20.00;55.60
7476;DHT22;3779;49.216;8.650;2023-12-28T18:45:42;20.00;57.80
7476;DHT22;3779;49.216;8.650;2023-12-28T18:48:31;19.80;57.40
7476;DHT22;3779;49.216;8.650;2023-12-28T18:51:16;20.00;57.90
7476;DHT22;3779;49.216;8.650;2023-12-28T18:54:03;20.00;58.00
7476;DHT22;3779;49.216;8.650;2023-12-28T18:56:49;20.10;57.80
7476;DHT22;3779;49.216;8.650;2023-12-28T18:59:35;20.40;57.20
7476;DHT22;3779;49.216;8.650;2023-12-28T19:02:21;20.10;55.90
7476;DHT22;3779;49.216;8.650;2023-12-28T19:05:11;20.10;57.60
7476;DHT22;3779;49.216;8.650;2023-12-28T19:07:59;20.10;57.90
7476;DHT22;3779;49.216;8.650;2023-12-28T19:10:45;20.10;57.80
7476;DHT22;3779;49.216;8.650;2023-12-28T19:13:30;20.40;57.40
7476;DHT22;3779;49.216;8.650;2023-12-28T19:16:20;20.20;57.40
7476;DHT22;3779;49.216;8.650;2023-12-28T19:19:05;20.10;57.50
7476;DHT22;3779;49.216;8.650;2023-12-28T19:21:51;20.10;57.60
7476;DHT22;3779;49.216;8.650;2023-12-28T19:24:37;20.20;57.00
7476;DHT22;3779;49.216;8.650;2023-12-28T19:27:23;20.20;56.50
7476;DHT22;3779;49.216;8.650;2023-12-28T19:30:10;20.60;57.00
7476;DHT22;3779;49.216;8.650;2023-12-28T19:47:58;20.30;57.10
7476;DHT22;3779;49.216;8.650;2023-12-28T19:50:44;20.50;56.60
7476;DHT22;3779;49.216;8.650;2023-12-28T19:53:33;20.30;56.90
7476;DHT22;3779;49.216;8.650;2023-12-28T22:16:28;20.10;58.10
7476;DHT22;3779;49.216;8.650;2023-12-28T22:46:44;20.10;58.40
